Campanya meteocatpedra

Dades de l'estació automàtica Cabanes

?
?
Resum diari 22:30 TU
Dades diàries de l'estació meteorològica
Temperatura mitjana 18.8 °C
Temperatura màxima 24.7 °C 12:18 TU
Temperatura mínima 12.4 °C 22:31 TU
Humitat relativa mitjana 47%
Precipitació acumulada 0.0 mm
Ratxa màxima del vent (2 m) 34.2 km/h - 327º 17:37 TU
Irradiació solar global 14.2 MJ/m2

El tram horari està expressat en Temps Universal (TU). Cal sumar una hora en horari d'hivern i dues en horari d'estiu per passar a l'hora oficial.

Cabanes

Metadades estació meteorol´gica
Municipi Cabanes
Comarca Alt Empordà
Altitud 31 m
Data alta 11.06.1991
Estat actual Operativa
Dades de període
Període
TU
TM
°C
TX
°C
TN
°C
HRM
%
PPT
mm
VVM (2 m)
km/h
DVM (2 m)
graus
VVX (2 m)
km/h
RS
W/m2
00:00 - 00:30 17.8 18.0 17.3 49 0.0 10.8 331 20.5 0
00:30 - 01:00 16.9 17.4 16.2 53 0.0 6.5 338 16.9 0
01:00 - 01:30 16.0 16.6 15.5 57 0.0 2.5 331 13.7 0
01:30 - 02:00 14.7 15.6 13.6 64 0.0 4.0 281 14.0 0
02:00 - 02:30 15.5 15.8 15.2 63 0.0 8.6 314 15.8 0
02:30 - 03:00 15.0 15.2 14.6 67 0.0 8.3 310 16.6 0
03:00 - 03:30 14.7 15.2 14.4 68 0.0 5.4 329 15.1 0
03:30 - 04:00 15.4 15.7 15.2 65 0.0 10.8 305 21.2 0
04:00 - 04:30 16.0 17.0 15.5 57 0.0 10.4 320 23.4 0
04:30 - 05:00 17.0 17.7 16.4 47 0.0 13.3 327 26.6 0
05:00 - 05:30 17.4 18.3 16.6 41 0.0 8.3 320 26.3 0
05:30 - 06:00 16.1 17.0 15.1 49 0.0 2.9 261 15.8 2
06:00 - 06:30 14.6 16.4 13.1 57 0.0 1.8 200 9.0 10
06:30 - 07:00 14.8 16.3 13.5 54 0.0 1.8 190 10.1 49
07:00 - 07:30 16.5 17.9 14.7 50 0.0 2.5 203 11.9 159
07:30 - 08:00 19.3 19.9 17.7 37 0.0 8.3 321 22.3 248
08:00 - 08:30 20.4 20.9 19.8 34 0.0 7.6 312 20.9 333
08:30 - 09:00 20.8 21.0 20.6 36 0.0 7.9 290 17.3 408
09:00 - 09:30 21.0 21.3 20.8 39 0.0 8.3 287 20.2 474
09:30 - 10:00 21.8 22.2 21.3 39 0.0 8.3 297 18.4 528
10:00 - 10:30 23.1 23.4 22.3 33 0.0 3.2 87 11.9 570
10:30 - 11:00 23.4 23.8 22.9 35 0.0 3.6 191 14.0 596
11:00 - 11:30 23.5 23.8 23.1 40 0.0 3.2 172 12.2 606
11:30 - 12:00 23.8 24.2 23.5 43 0.0 4.3 189 11.2 608
12:00 - 12:30 24.4 24.7 24.0 41 0.0 2.5 158 10.1 589
12:30 - 13:00 23.9 24.2 23.6 40 0.0 3.6 92 10.8 559
13:00 - 13:30 23.5 23.9 23.0 43 0.0 4.0 120 12.6 517
13:30 - 14:00 22.9 23.3 22.6 46 0.0 3.2 120 11.9 458
14:00 - 14:30 23.1 23.4 22.8 44 0.0 3.6 177 13.0 391
14:30 - 15:00 22.8 23.0 22.6 46 0.0 2.9 167 9.0 314
15:00 - 15:30 22.5 22.7 22.1 46 0.0 1.1 135 6.8 231
15:30 - 16:00 22.1 22.3 21.8 52 0.0 1.4 190 6.1 147
16:00 - 16:30 20.4 21.5 20.0 59 0.0 1.4 86 12.6 73
16:30 - 17:00 20.3 21.0 19.4 44 0.0 6.5 336 15.8 14
17:00 - 17:30 19.3 19.6 19.0 42 0.0 7.9 327 27.4 2
17:30 - 18:00 19.3 19.6 18.9 37 0.0 15.1 316 34.2 2
18:00 - 18:30 18.7 19.0 18.3 40 0.0 12.2 295 26.6 2
18:30 - 19:00 18.5 18.8 18.2 40 0.0 8.6 290 19.1 2
19:00 - 19:30 18.2 18.4 17.9 39 0.0 4.0 263 11.2 2
19:30 - 20:00 18.0 18.2 17.6 36 0.0 3.2 243 11.2 2
20:00 - 20:30 17.7 18.6 17.0 36 0.0 4.3 236 18.7 2
20:30 - 21:00 17.2 18.7 14.7 44 0.0 5.8 269 23.8 2
21:00 - 21:30 14.1 14.8 13.5 64 0.0 2.2 195 14.0 2
21:30 - 22:00 14.7 15.4 14.0 59 0.0 2.9 216 15.8 2
22:00 - 22:30 13.4 14.3 12.5 61 0.0 0.0 220 3.2 2
22:30 - 23:00 15.5 19.7 12.4 44 0.0 6.5 303 25.6 1

Les dades en taronja només han passat un control de qualitat automàtic. Resta pendent la seva validació definitiva.